KCVG/CVG METAR and TAF weather

Enter ICAO airport designator
Station Type Date Time Source
KCVG METAR 2019/05/20 10:21 UTC NOAA

KCVG 201021Z 26007KT 10SM OVC039 16/13 A2995 RMK AO2 BINOVC T01610128 $


Station Type Date Time Source
KCVG Decoded METAR 2019/05/20 10:21 UTC NOAA

CINCINNATI/NORTHERN KY INTERNATIONAL , KY, United States (KCVG) 39-03N 084-40W 269M
May 20, 2019 - 06:21 AM EDT / 2019.05.20 1021 UTC
Wind: from the W (260 degrees) at 8 MPH (7 KT):0
Visibility: 10 mile(s):0
Sky conditions: overcast
Temperature: 61.0 F (16.1 C)
Dew Point: 55.0 F (12.8 C)
Relative Humidity: 80%
Pressure (altimeter): 29.95 in. Hg (1014 hPa)
ob: KCVG 201021Z 26007KT 10SM OVC039 16/13 A2995 RMK AO2 BINOVC T01610128
cycle: 10

Station Type Date Time Source
KCVG TAF 2019/05/20 09:03 UTC NOAA

TAF
AMD KCVG 200901Z 2009/2112 26009KT P6SM FEW025 SCT150
FM201500 28011G19KT P6SM BKN040
FM210000 35008KT P6SM SCT035 BKN250
FM210600 03008KT P6SM BKN150

Example: see airport list